createdAt,value
2023-02-09T00:02:38.652Z,64.80
2023-02-09T00:07:40.922Z,65.00
2023-02-09T00:12:44.466Z,64.90
2023-02-09T00:17:46.696Z,64.80
2023-02-09T00:22:48.908Z,65.00
2023-02-09T00:27:52.414Z,65.20
2023-02-09T00:32:54.586Z,65.10
2023-02-09T00:37:56.682Z,65.20
2023-02-09T00:43:00.147Z,65.20
2023-02-09T00:48:03.078Z,65.40
2023-02-09T00:53:05.314Z,66.40
2023-02-09T00:58:08.971Z,65.40
2023-02-09T01:03:11.636Z,65.60
2023-02-09T01:08:13.818Z,65.60
2023-02-09T01:13:17.526Z,65.70
2023-02-09T01:18:19.695Z,65.80
2023-02-09T01:23:21.846Z,65.80
2023-02-09T01:28:25.453Z,65.70
2023-02-09T01:33:27.679Z,66.00
2023-02-09T01:38:30.169Z,65.90
2023-02-09T01:43:56.394Z,65.90
2023-02-09T01:49:05.243Z,66.10
2023-02-09T01:54:13.350Z,65.80
2023-02-09T01:59:17.578Z,65.80
2023-02-09T02:04:20.542Z,65.80
2023-02-09T02:09:24.354Z,65.70
2023-02-09T02:14:31.245Z,65.70
2023-02-09T02:20:01.751Z,65.60
2023-02-09T02:25:36.491Z,65.60
2023-02-09T02:30:58.526Z,65.40
2023-02-09T02:36:08.860Z,65.30
2023-02-09T02:41:15.708Z,65.10
2023-02-09T02:46:29.084Z,65.00
2023-02-09T02:51:36.828Z,64.90
2023-02-09T02:56:43.485Z,64.70
2023-02-09T03:01:54.595Z,64.60
2023-02-09T03:06:58.190Z,64.50
2023-02-09T03:12:11.124Z,64.40
2023-02-09T03:17:24.058Z,64.30
2023-02-09T03:22:33.030Z,64.20
2023-02-09T03:27:39.481Z,64.10
2023-02-09T03:32:44.434Z,64.00
2023-02-09T03:37:48.034Z,63.70
2023-02-09T03:42:50.363Z,63.80
2023-02-09T03:47:52.556Z,63.70
2023-02-09T03:52:56.080Z,63.70
2023-02-09T03:57:58.193Z,63.80
2023-02-09T04:03:00.420Z,63.80
2023-02-09T04:08:04.045Z,63.90
2023-02-09T04:13:06.336Z,63.90
2023-02-09T04:18:08.467Z,63.80
2023-02-09T04:23:12.118Z,63.90
2023-02-09T04:28:14.326Z,64.00
2023-02-09T04:33:16.370Z,63.90
2023-02-09T04:38:21.668Z,64.00
2023-02-09T04:43:23.908Z,64.10
2023-02-09T04:48:27.904Z,64.10
2023-02-09T04:53:31.510Z,64.20
2023-02-09T04:58:33.725Z,64.20
2023-02-09T05:03:35.915Z,64.30
2023-02-09T05:08:39.844Z,64.40
2023-02-09T05:13:42.041Z,64.40
2023-02-09T05:18:44.672Z,64.40
2023-02-09T05:23:48.324Z,64.40
2023-02-09T05:28:50.436Z,64.40
2023-02-09T05:33:52.598Z,64.40
2023-02-09T05:38:56.139Z,64.40
2023-02-09T05:43:58.295Z,64.50
2023-02-09T05:49:00.457Z,64.50
2023-02-09T05:54:04.150Z,64.60
2023-02-09T05:59:06.520Z,64.80
2023-02-09T06:04:08.818Z,64.80
2023-02-09T06:09:12.642Z,65.70
2023-02-09T06:14:14.810Z,65.00
2023-02-09T06:19:19.268Z,65.00
2023-02-09T06:24:22.933Z,65.00
2023-02-09T06:29:25.609Z,65.00
2023-02-09T06:34:28.042Z,65.10
2023-02-09T06:39:31.780Z,65.10
2023-02-09T06:44:33.980Z,65.20
2023-02-09T06:49:36.171Z,65.30
2023-02-09T06:54:40.179Z,65.30
2023-02-09T06:59:42.577Z,65.30
2023-02-09T07:04:44.861Z,65.40
2023-02-09T07:09:48.484Z,65.40
2023-02-09T07:14:50.762Z,65.60
2023-02-09T07:19:53.028Z,65.50
2023-02-09T07:24:56.672Z,65.60
2023-02-09T07:30:00.886Z,65.60
2023-02-09T07:35:03.833Z,65.70
2023-02-09T07:40:09.453Z,65.70
2023-02-09T07:45:12.115Z,65.90
2023-02-09T07:50:14.333Z,65.90
2023-02-09T07:55:18.182Z,66.10
2023-02-09T08:00:20.979Z,66.30
2023-02-09T08:05:30.607Z,66.00
2023-02-09T08:10:36.106Z,65.40
2023-02-09T08:15:41.972Z,65.50
2023-02-09T08:20:46.228Z,65.50
2023-02-09T08:25:50.850Z,65.40
2023-02-09T08:30:53.159Z,65.40
2023-02-09T08:35:55.806Z,65.50
2023-02-09T08:41:02.468Z,65.20
2023-02-09T08:46:06.975Z,65.20
2023-02-09T08:51:10.645Z,65.00
2023-02-09T08:56:14.282Z,64.70
2023-02-09T09:01:16.772Z,64.50
2023-02-09T09:06:18.972Z,64.40
2023-02-09T09:11:22.532Z,64.10
2023-02-09T09:16:24.771Z,63.70
2023-02-09T09:21:27.055Z,63.60
2023-02-09T09:26:30.599Z,63.50
2023-02-09T09:31:32.975Z,63.40
2023-02-09T09:36:35.180Z,63.30
2023-02-09T09:41:38.921Z,62.50
2023-02-09T09:46:43.997Z,62.50
2023-02-09T09:51:50.363Z,62.70
2023-02-09T09:56:54.747Z,62.10
2023-02-09T10:02:18.621Z,61.70
2023-02-09T10:07:23.703Z,61.10
2023-02-09T10:12:36.292Z,61.50
2023-02-09T10:17:38.599Z,61.50
2023-02-09T10:22:44.065Z,61.70
2023-02-09T10:27:47.721Z,61.40
2023-02-09T10:32:50.083Z,61.00
2023-02-09T10:38:00.956Z,61.20
2023-02-09T10:43:10.295Z,60.80
2023-02-09T10:48:19.470Z,60.70
2023-02-09T10:53:25.537Z,60.60
2023-02-09T10:58:32.961Z,60.20
2023-02-09T11:03:36.269Z,59.90
2023-02-09T11:08:43.892Z,60.40
2023-02-09T11:13:47.815Z,59.50
2023-02-09T11:18:57.874Z,59.50
2023-02-09T11:24:03.454Z,59.60
2023-02-09T11:29:18.719Z,60.30
2023-02-09T11:34:44.424Z,60.60
2023-02-09T11:39:54.545Z,60.90
2023-02-09T11:45:02.719Z,61.30
2023-02-09T11:50:09.842Z,61.30
2023-02-09T11:55:27.542Z,61.30
2023-02-09T12:00:52.615Z,61.40
2023-02-09T12:05:57.415Z,61.60
2023-02-09T12:11:13.910Z,61.70
2023-02-09T12:16:20.464Z,61.70
2023-02-09T12:21:31.442Z,61.70
2023-02-09T12:26:41.208Z,61.50
2023-02-09T12:32:23.886Z,61.80
2023-02-09T12:37:28.222Z,62.00
2023-02-09T12:42:42.248Z,62.40
2023-02-09T12:47:56.758Z,63.00
2023-02-09T12:53:34.341Z,63.10
2023-02-09T12:58:39.994Z,63.40
2023-02-09T13:03:51.457Z,63.40
2023-02-09T13:08:57.533Z,63.00
2023-02-09T13:14:03.094Z,62.70
2023-02-09T13:19:17.927Z,62.50
2023-02-09T13:24:23.942Z,62.40
2023-02-09T13:29:28.365Z,62.30
2023-02-09T13:34:38.336Z,62.50
2023-02-09T13:39:41.185Z,62.90
2023-02-09T13:44:45.691Z,63.20
2023-02-09T13:50:00.527Z,63.60
2023-02-09T13:55:10.932Z,64.10
2023-02-09T14:00:23.407Z,64.40
2023-02-09T14:05:35.414Z,64.60
2023-02-09T14:10:39.223Z,65.00
2023-02-09T14:15:46.088Z,65.00
2023-02-09T14:21:14.795Z,65.20
2023-02-09T14:26:26.542Z,65.40
2023-02-09T14:31:28.739Z,65.50
2023-02-09T14:36:35.105Z,65.40
2023-02-09T14:41:37.540Z,65.70
2023-02-09T14:46:50.837Z,65.70
2023-02-09T14:52:02.169Z,66.10
2023-02-09T14:57:04.511Z,66.30
2023-02-09T15:02:15.629Z,66.10
2023-02-09T15:07:22.131Z,66.50
2023-02-09T15:12:26.632Z,66.50
2023-02-09T15:17:31.182Z,66.40
2023-02-09T15:22:34.862Z,66.50
2023-02-09T15:27:41.186Z,66.50
2023-02-09T15:32:44.356Z,66.70
2023-02-09T15:37:51.515Z,66.70
2023-02-09T15:42:57.041Z,67.20
2023-02-09T15:47:59.653Z,67.50
2023-02-09T15:53:05.606Z,67.50
2023-02-09T15:58:13.353Z,68.00
2023-02-09T16:03:18.540Z,68.30
2023-02-09T16:08:24.587Z,68.40
2023-02-09T16:13:26.904Z,68.60
2023-02-09T16:18:29.121Z,68.60
2023-02-09T16:23:35.038Z,68.90
2023-02-09T16:28:37.228Z,69.30
2023-02-09T16:33:39.431Z,69.30
2023-02-09T16:38:43.504Z,69.40
2023-02-09T16:43:45.775Z,69.60
2023-02-09T16:48:48.059Z,69.50
2023-02-09T16:53:52.223Z,69.60
2023-02-09T16:58:54.422Z,70.00
2023-02-09T17:03:57.014Z,69.90
2023-02-09T17:09:00.514Z,70.10
2023-02-09T17:14:02.603Z,70.50
2023-02-09T17:19:09.949Z,70.60
2023-02-09T17:24:16.174Z,70.70
2023-02-09T17:29:18.336Z,71.00
2023-02-09T17:34:26.405Z,70.90
2023-02-09T17:39:37.271Z,71.40
2023-02-09T17:44:46.386Z,71.40
2023-02-09T17:56:18.608Z,72.40
2023-02-09T18:01:27.036Z,71.70
2023-02-09T18:06:35.363Z,71.60
2023-02-09T18:11:58.524Z,71.90
2023-02-09T18:17:04.101Z,73.10
2023-02-09T18:22:07.030Z,72.40
2023-02-09T18:27:14.443Z,72.40
2023-02-09T18:32:18.165Z,72.90
2023-02-09T18:37:24.406Z,72.90
2023-02-09T18:42:34.486Z,73.10
2023-02-09T19:00:15.315Z,73.10
2023-02-09T19:05:34.055Z,74.60
2023-02-09T19:10:42.058Z,74.20
2023-02-09T19:15:46.679Z,74.00
2023-02-09T19:20:50.082Z,74.20
2023-02-09T19:26:02.105Z,74.40
2023-02-09T19:31:13.721Z,75.40
2023-02-09T19:36:25.269Z,75.50
2023-02-09T19:41:30.276Z,75.10
2023-02-09T19:46:52.050Z,75.10
2023-02-09T19:52:50.623Z,76.50
2023-02-09T20:11:06.717Z,77.10
2023-02-09T20:22:10.034Z,77.20
2023-02-09T20:27:14.665Z,76.50
2023-02-09T20:32:17.399Z,76.40
2023-02-09T20:37:21.629Z,76.70
2023-02-09T20:42:28.482Z,77.20
2023-02-09T20:47:46.647Z,77.20
2023-02-09T20:52:53.842Z,77.20
2023-02-09T20:57:58.917Z,77.90
2023-02-09T21:03:07.841Z,77.50
2023-02-09T21:08:21.449Z,77.60
2023-02-09T21:13:46.344Z,78.20
2023-02-09T21:19:10.402Z,78.20
2023-02-09T21:24:31.018Z,79.20
2023-02-09T21:29:38.928Z,79.00
2023-02-09T21:34:43.204Z,78.10
2023-02-09T21:40:05.969Z,78.40
2023-02-09T21:45:18.861Z,79.50
2023-02-09T21:50:21.534Z,78.60
2023-02-09T21:55:25.770Z,78.60
2023-02-09T22:00:56.071Z,78.90
2023-02-09T22:05:59.502Z,80.10
2023-02-09T22:11:54.922Z,79.00
2023-02-09T22:17:02.603Z,80.50
2023-02-09T22:22:13.589Z,78.80
2023-02-09T22:27:20.537Z,79.30
2023-02-09T22:32:27.328Z,78.90
2023-02-09T22:37:37.609Z,78.70
2023-02-09T22:42:41.949Z,78.60
2023-02-09T22:47:44.886Z,78.60
2023-02-09T22:53:04.674Z,78.50
2023-02-09T22:58:15.111Z,78.80
2023-02-09T23:03:17.717Z,78.80
2023-02-09T23:08:24.650Z,78.40
2023-02-09T23:13:39.665Z,78.50
2023-02-09T23:18:53.983Z,78.70
2023-02-09T23:24:00.001Z,79.00
2023-02-09T23:29:10.681Z,78.90
2023-02-09T23:34:19.677Z,79.60
2023-02-09T23:39:22.832Z,79.50
2023-02-09T23:44:30.271Z,79.60
2023-02-09T23:49:33.054Z,79.70
2023-02-09T23:54:36.051Z,79.60
2023-02-09T23:59:40.247Z,79.50
